createdAt,value
2022-11-29T00:01:00.989Z,76.10
2022-11-29T00:03:28.843Z,76.00
2022-11-29T00:05:56.139Z,76.20
2022-11-29T00:08:24.649Z,76.20
2022-11-29T00:10:52.051Z,76.20
2022-11-29T00:13:19.254Z,76.20
2022-11-29T00:15:46.465Z,76.10
2022-11-29T00:18:13.696Z,76.10
2022-11-29T00:20:40.922Z,76.20
2022-11-29T00:23:08.158Z,76.10
2022-11-29T00:25:38.168Z,76.40
2022-11-29T00:28:05.353Z,76.30
2022-11-29T00:30:32.632Z,76.40
2022-11-29T00:33:00.034Z,76.40
2022-11-29T00:35:27.239Z,76.40
2022-11-29T00:37:54.413Z,76.30
2022-11-29T00:40:21.609Z,76.10
2022-11-29T00:42:50.110Z,76.20
2022-11-29T00:45:17.541Z,76.30
2022-11-29T00:47:44.761Z,76.30
2022-11-29T00:50:12.258Z,76.20
2022-11-29T00:52:39.433Z,76.30
2022-11-29T00:55:07.693Z,76.60
2022-11-29T00:57:34.865Z,76.50
2022-11-29T01:00:05.042Z,76.50
2022-11-29T01:02:32.272Z,76.60
2022-11-29T01:04:59.500Z,76.30
2022-11-29T01:07:26.797Z,76.40
2022-11-29T01:09:54.027Z,76.60
2022-11-29T01:12:21.210Z,76.30
2022-11-29T01:14:48.413Z,76.40
2022-11-29T01:17:16.939Z,76.50
2022-11-29T01:19:49.326Z,76.30
2022-11-29T01:22:18.526Z,76.50
2022-11-29T01:24:45.974Z,76.50
2022-11-29T01:27:13.326Z,76.40
2022-11-29T01:29:40.569Z,76.20
2022-11-29T01:32:07.763Z,76.10
2022-11-29T01:34:37.436Z,76.00
2022-11-29T01:37:04.638Z,76.00
2022-11-29T01:39:31.816Z,76.30
2022-11-29T01:42:00.630Z,76.30
2022-11-29T01:45:00.350Z,76.30
2022-11-29T01:47:27.883Z,76.30
2022-11-29T01:49:56.522Z,76.30
2022-11-29T01:52:28.066Z,76.30
2022-11-29T01:54:58.180Z,76.30
2022-11-29T01:57:25.943Z,76.40
2022-11-29T02:00:02.239Z,76.30
2022-11-29T02:02:43.498Z,76.50
2022-11-29T02:05:13.181Z,76.80
2022-11-29T02:07:41.580Z,76.70
2022-11-29T02:10:09.705Z,76.80
2022-11-29T02:12:45.848Z,76.70
2022-11-29T02:15:24.107Z,76.60
2022-11-29T02:18:04.212Z,76.40
2022-11-29T02:21:00.479Z,76.30
2022-11-29T02:23:47.710Z,76.10
2022-11-29T02:26:26.482Z,76.10
2022-11-29T02:29:21.546Z,76.10
2022-11-29T02:32:09.269Z,75.80
2022-11-29T02:34:53.206Z,75.90
2022-11-29T02:37:39.995Z,75.80
2022-11-29T02:40:20.726Z,75.80
2022-11-29T02:43:09.607Z,76.00
2022-11-29T02:45:48.960Z,76.00
2022-11-29T02:48:43.385Z,75.90
2022-11-29T02:51:20.751Z,75.90
2022-11-29T02:53:55.328Z,76.10
2022-11-29T02:56:27.164Z,76.00
2022-11-29T02:59:01.391Z,75.90
2022-11-29T03:01:34.890Z,75.80
2022-11-29T03:04:10.945Z,75.80
2022-11-29T03:06:46.521Z,75.80
2022-11-29T03:09:20.982Z,75.80
2022-11-29T03:11:55.643Z,76.00
2022-11-29T03:14:25.913Z,75.90
2022-11-29T03:17:00.798Z,75.80
2022-11-29T03:19:40.106Z,75.60
2022-11-29T03:22:15.043Z,75.60
2022-11-29T03:24:49.594Z,75.50
2022-11-29T03:27:24.410Z,75.70
2022-11-29T03:29:56.591Z,75.70
2022-11-29T05:55:58.412Z,76.40
2022-11-29T05:58:32.431Z,76.40
2022-11-29T06:01:06.940Z,76.50
2022-11-29T06:03:39.751Z,76.50
2022-11-29T06:06:14.388Z,76.40
2022-11-29T06:08:48.573Z,76.40
2022-11-29T06:11:23.305Z,76.20
2022-11-29T06:14:02.134Z,76.40
2022-11-29T06:16:49.745Z,76.40
2022-11-29T06:19:45.342Z,76.40
2022-11-29T06:22:29.810Z,76.60
2022-11-29T06:25:12.590Z,76.80
2022-11-29T06:27:57.426Z,77.00
2022-11-29T06:30:30.060Z,76.70
2022-11-29T06:33:08.349Z,76.60
2022-11-29T06:35:40.759Z,76.50
2022-11-29T06:38:16.109Z,76.50
2022-11-29T06:40:43.850Z,76.40
2022-11-29T06:43:13.379Z,76.40
2022-11-29T06:45:45.948Z,76.60
2022-11-29T06:48:19.458Z,76.30
2022-11-29T06:50:56.321Z,76.20
2022-11-29T06:53:34.410Z,76.20
2022-11-29T06:56:08.713Z,76.20
2022-11-29T06:58:46.097Z,76.10
2022-11-29T07:01:24.130Z,76.10
2022-11-29T07:04:07.309Z,76.20
2022-11-29T07:06:35.614Z,76.10
2022-11-29T07:09:10.990Z,76.00
2022-11-29T07:11:39.191Z,75.90
2022-11-29T07:14:09.741Z,75.80
2022-11-29T07:16:44.522Z,76.00
2022-11-29T07:19:18.747Z,75.90
2022-11-29T07:21:59.009Z,75.90
2022-11-29T07:24:39.069Z,76.30
2022-11-29T07:27:15.979Z,76.20
2022-11-29T07:29:58.858Z,76.10
2022-11-29T07:32:35.839Z,75.70
2022-11-29T07:35:10.061Z,75.50
2022-11-29T07:37:48.064Z,75.50
2022-11-29T07:40:19.474Z,75.50
2022-11-29T07:42:59.897Z,75.80
2022-11-29T07:45:31.728Z,75.70
2022-11-29T07:47:59.569Z,75.60
2022-11-29T07:50:27.715Z,75.80
2022-11-29T07:52:55.322Z,75.80
2022-11-29T07:55:24.663Z,76.00
2022-11-29T07:57:52.633Z,76.10
2022-11-29T08:00:20.522Z,76.10
2022-11-29T08:02:50.408Z,76.10
2022-11-29T08:05:17.812Z,75.90
2022-11-29T08:07:46.340Z,75.80
2022-11-29T08:10:16.110Z,75.80
2022-11-29T08:12:44.224Z,75.90
2022-11-29T08:15:11.933Z,75.70
2022-11-29T08:17:39.554Z,75.60
2022-11-29T08:20:09.939Z,75.50
2022-11-29T08:22:37.144Z,75.40
2022-11-29T08:25:05.433Z,75.50
2022-11-29T08:27:33.193Z,75.40
2022-11-29T08:30:00.369Z,75.30
2022-11-29T08:32:27.852Z,75.60
2022-11-29T08:34:55.063Z,75.60
2022-11-29T08:37:23.587Z,75.50
2022-11-29T08:39:50.787Z,75.30
2022-11-29T08:42:18.033Z,75.20
2022-11-29T08:44:45.965Z,75.30
2022-11-29T08:47:32.212Z,75.40
2022-11-29T08:50:02.331Z,75.50
2022-11-29T08:52:50.685Z,75.30
2022-11-29T08:55:19.920Z,75.50
2022-11-29T08:57:47.553Z,75.50
2022-11-29T09:00:15.927Z,75.50
2022-11-29T09:02:43.341Z,75.50
2022-11-29T09:05:11.634Z,75.40
2022-11-29T09:07:40.579Z,75.10
2022-11-29T09:10:09.301Z,75.10
2022-11-29T09:12:37.819Z,75.20
2022-11-29T09:15:07.392Z,75.00
2022-11-29T09:17:34.700Z,75.20
2022-11-29T09:20:02.164Z,75.20
2022-11-29T09:22:29.399Z,75.10
2022-11-29T09:24:57.897Z,75.00
2022-11-29T09:27:25.097Z,75.00
2022-11-29T09:29:52.271Z,74.80
2022-11-29T09:32:19.436Z,74.90
2022-11-29T09:34:46.921Z,74.80
2022-11-29T09:37:14.351Z,74.70
2022-11-29T09:39:41.829Z,74.70
2022-11-29T09:42:23.912Z,74.40
2022-11-29T09:45:01.208Z,74.70
2022-11-29T09:47:45.526Z,74.70
2022-11-29T09:50:21.168Z,74.60
2022-11-29T09:52:56.438Z,74.50
2022-11-29T09:55:39.019Z,74.30
2022-11-29T09:58:13.903Z,74.40
2022-11-29T10:00:48.376Z,73.80
2022-11-29T10:03:23.269Z,74.00
2022-11-29T10:05:57.390Z,74.20
2022-11-29T10:08:31.016Z,74.10
2022-11-29T10:11:06.408Z,74.10
2022-11-29T10:13:36.303Z,73.90
2022-11-29T10:16:12.248Z,73.50
2022-11-29T10:18:46.094Z,73.40
2022-11-29T10:21:19.737Z,73.50
2022-11-29T10:23:50.911Z,73.50
2022-11-29T10:26:18.280Z,73.70
2022-11-29T10:28:48.678Z,73.40
2022-11-29T10:31:26.715Z,73.60
2022-11-29T10:33:55.227Z,73.40
2022-11-29T10:36:27.046Z,72.90
2022-11-29T10:38:56.584Z,73.20
2022-11-29T10:41:23.821Z,73.00
2022-11-29T10:43:55.105Z,73.00
2022-11-29T10:46:28.174Z,72.80
2022-11-29T10:48:57.577Z,73.00
2022-11-29T10:51:24.908Z,73.10
2022-11-29T10:53:54.520Z,72.90
2022-11-29T10:56:24.190Z,72.90
2022-11-29T10:58:58.269Z,72.80
2022-11-29T11:01:28.880Z,72.90
2022-11-29T11:03:58.806Z,73.10
2022-11-29T11:06:27.902Z,72.90
2022-11-29T11:08:57.207Z,72.80
2022-11-29T11:11:27.779Z,72.90
2022-11-29T11:14:01.456Z,72.90
2022-11-29T11:16:32.920Z,73.10
2022-11-29T11:19:27.702Z,73.10
2022-11-29T11:21:55.469Z,72.90
2022-11-29T11:24:25.408Z,72.90
2022-11-29T11:26:52.859Z,73.00
2022-11-29T11:29:24.515Z,73.10
2022-11-29T11:31:55.371Z,73.20
2022-11-29T11:34:29.095Z,72.90
2022-11-29T11:37:21.532Z,72.70
2022-11-29T11:39:50.411Z,73.10
2022-11-29T11:42:40.272Z,73.10
2022-11-29T11:45:27.315Z,72.90
2022-11-29T11:47:58.253Z,73.00
2022-11-29T11:50:29.513Z,72.90
2022-11-29T11:52:58.801Z,72.80
2022-11-29T11:55:32.021Z,72.70
2022-11-29T11:58:07.837Z,72.90
2022-11-29T12:01:02.904Z,72.90
2022-11-29T12:03:49.652Z,73.00
2022-11-29T12:06:27.100Z,73.10
2022-11-29T12:08:59.199Z,72.90
2022-11-29T12:11:31.389Z,73.10
2022-11-29T12:14:00.272Z,73.10
2022-11-29T12:16:34.662Z,72.80
2022-11-29T12:19:11.964Z,72.90
2022-11-29T12:21:43.523Z,73.20
2022-11-29T12:24:26.238Z,73.00
2022-11-29T12:26:57.615Z,73.00
2022-11-29T12:29:31.551Z,73.10
2022-11-29T12:32:14.464Z,72.90
2022-11-29T12:34:58.674Z,72.80
2022-11-29T12:37:32.747Z,72.60
2022-11-29T12:40:06.181Z,72.70
2022-11-29T12:42:46.066Z,72.80
2022-11-29T12:45:27.565Z,72.70
2022-11-29T12:48:10.073Z,72.70
2022-11-29T12:50:50.181Z,72.70
2022-11-29T12:53:33.623Z,72.60
2022-11-29T12:56:10.980Z,72.50
2022-11-29T12:58:50.189Z,72.60
2022-11-29T13:01:24.137Z,72.60
2022-11-29T13:03:58.760Z,72.70
2022-11-29T13:06:33.023Z,72.70
2022-11-29T13:09:35.146Z,72.50
2022-11-29T13:12:06.478Z,72.80
2022-11-29T13:14:54.944Z,72.80
2022-11-29T13:17:30.476Z,72.60
2022-11-29T13:20:04.060Z,72.60
2022-11-29T13:22:45.627Z,72.70
2022-11-29T13:25:17.581Z,72.90
2022-11-29T13:27:58.306Z,72.60
2022-11-29T13:30:26.113Z,72.60
2022-11-29T13:32:59.163Z,72.70
2022-11-29T13:35:35.130Z,72.40
2022-11-29T13:38:09.101Z,72.50
2022-11-29T13:40:38.568Z,72.80
2022-11-29T13:43:18.111Z,73.00
2022-11-29T13:45:50.733Z,72.90
2022-11-29T13:48:31.713Z,73.00
2022-11-29T13:51:21.967Z,73.10
2022-11-29T13:53:51.499Z,73.30
2022-11-29T13:56:33.399Z,73.30
2022-11-29T13:59:05.161Z,73.30
2022-11-29T14:01:44.873Z,73.20
2022-11-29T14:04:28.813Z,73.20
2022-11-29T14:07:08.796Z,72.90
2022-11-29T14:09:50.945Z,73.20
2022-11-29T14:12:35.744Z,73.20
2022-11-29T14:15:17.026Z,73.10
2022-11-29T14:17:50.898Z,73.10
2022-11-29T14:20:44.855Z,73.20
2022-11-29T14:23:17.847Z,73.40
2022-11-29T14:26:20.591Z,73.30
2022-11-29T14:28:52.346Z,73.00
2022-11-29T14:31:49.132Z,73.30
2022-11-29T14:34:33.773Z,73.20
2022-11-29T14:37:08.970Z,73.10
2022-11-29T14:39:44.401Z,73.20
2022-11-29T14:42:18.559Z,73.20
2022-11-29T14:44:51.597Z,73.10
2022-11-29T14:47:29.725Z,72.90
2022-11-29T14:49:59.578Z,72.90
2022-11-29T14:52:30.320Z,72.80
2022-11-29T14:55:02.402Z,72.90
2022-11-29T14:57:52.117Z,73.10
2022-11-29T15:00:22.241Z,73.10
2022-11-29T15:02:52.925Z,73.20
2022-11-29T15:05:24.404Z,73.40
2022-11-29T15:07:56.945Z,73.30
2022-11-29T15:10:30.031Z,73.40
2022-11-29T15:12:59.902Z,73.50
2022-11-29T15:15:44.428Z,73.50
2022-11-29T15:18:27.175Z,73.50
2022-11-29T15:21:08.198Z,73.70
2022-11-29T15:23:41.385Z,73.60
2022-11-29T15:26:16.469Z,73.60
2022-11-29T15:28:44.179Z,73.50
2022-11-29T15:31:15.736Z,73.40
2022-11-29T15:33:45.883Z,73.60
2022-11-29T15:36:17.136Z,73.50
2022-11-29T15:38:46.104Z,73.30
2022-11-29T15:41:20.602Z,73.40
2022-11-29T15:43:51.996Z,73.40
2022-11-29T15:46:23.649Z,73.60
2022-11-29T15:48:50.872Z,73.80
2022-11-29T15:51:25.705Z,73.70
2022-11-29T15:54:11.564Z,73.80
2022-11-29T15:56:45.104Z,73.70
2022-11-29T15:59:30.212Z,73.70
2022-11-29T16:02:02.356Z,73.80
2022-11-29T16:04:30.263Z,74.00
2022-11-29T16:06:57.840Z,74.30
2022-11-29T16:09:31.162Z,74.30
2022-11-29T16:11:59.955Z,73.90
2022-11-29T16:14:28.546Z,73.80
2022-11-29T16:17:00.467Z,73.90
2022-11-29T16:19:32.430Z,74.20
2022-11-29T16:22:12.386Z,73.90
2022-11-29T16:24:45.664Z,73.80
2022-11-29T16:27:14.151Z,74.30
2022-11-29T16:29:45.012Z,74.80
2022-11-29T16:32:20.253Z,74.90
2022-11-29T16:34:47.832Z,74.70
2022-11-29T16:37:18.762Z,74.70
2022-11-29T16:39:48.070Z,74.70
2022-11-29T16:42:23.581Z,74.70
2022-11-29T16:45:33.458Z,74.60
2022-11-29T16:48:13.911Z,74.60
2022-11-29T16:50:41.115Z,74.60
2022-11-29T16:53:33.194Z,74.60
2022-11-29T16:56:00.382Z,74.80
2022-11-29T16:58:27.906Z,74.80
2022-11-29T17:00:55.496Z,74.70
2022-11-29T17:03:24.085Z,74.70
2022-11-29T17:05:51.336Z,74.60
2022-11-29T17:08:18.564Z,74.50
2022-11-29T17:10:45.782Z,74.40
2022-11-29T17:13:13.031Z,74.50
2022-11-29T17:15:40.278Z,74.40
2022-11-29T17:18:07.487Z,74.60
2022-11-29T17:20:36.015Z,74.40
2022-11-29T17:23:03.220Z,74.40
2022-11-29T17:25:30.377Z,74.30
2022-11-29T17:27:57.975Z,74.60
2022-11-29T17:30:25.763Z,75.20
2022-11-29T17:32:52.982Z,74.90
2022-11-29T17:35:20.175Z,74.60
2022-11-29T17:37:48.695Z,74.60
2022-11-29T17:40:16.155Z,74.50
2022-11-29T17:42:43.333Z,74.40
2022-11-29T17:45:11.258Z,74.30
2022-11-29T17:47:38.464Z,74.60
2022-11-29T17:50:06.838Z,74.90
2022-11-29T17:52:34.004Z,75.10
2022-11-29T17:55:02.514Z,75.10
2022-11-29T17:57:29.681Z,75.00
2022-11-29T17:59:56.844Z,74.80
2022-11-29T18:02:24.043Z,74.60
2022-11-29T18:04:51.367Z,74.90
2022-11-29T18:07:18.589Z,74.80
2022-11-29T18:09:47.347Z,74.60
2022-11-29T18:12:16.081Z,74.60
2022-11-29T18:14:43.292Z,74.60
2022-11-29T18:17:10.510Z,74.50
2022-11-29T18:19:37.733Z,75.20
2022-11-29T18:22:04.905Z,74.80
2022-11-29T18:24:32.087Z,74.60
2022-11-29T18:26:59.264Z,74.50
2022-11-29T18:29:31.477Z,74.30
2022-11-29T18:32:01.380Z,74.20
2022-11-29T18:34:28.545Z,74.30
2022-11-29T18:36:55.706Z,74.30
2022-11-29T18:39:24.905Z,74.30
2022-11-29T18:41:52.092Z,74.30
2022-11-29T18:44:21.515Z,74.40
2022-11-29T18:46:50.207Z,74.50
2022-11-29T18:49:18.426Z,74.20
2022-11-29T18:51:46.867Z,74.60
2022-11-29T18:54:14.979Z,74.70
2022-11-29T18:56:43.441Z,74.40
2022-11-29T18:59:12.248Z,74.50
2022-11-29T19:01:42.421Z,74.30
2022-11-29T19:04:12.956Z,74.30
2022-11-29T19:06:40.837Z,74.30
2022-11-29T19:09:16.217Z,74.30
2022-11-29T19:11:43.683Z,74.30
2022-11-29T19:14:12.675Z,74.40
2022-11-29T19:16:42.055Z,74.20
2022-11-29T19:19:11.240Z,74.40
2022-11-29T19:21:42.090Z,74.30
2022-11-29T19:24:14.529Z,74.30
2022-11-29T19:26:44.368Z,74.20
2022-11-29T19:29:12.383Z,74.30
2022-11-29T19:31:40.238Z,74.50
2022-11-29T19:34:07.853Z,74.30
2022-11-29T19:36:42.285Z,74.30
2022-11-29T19:39:10.319Z,74.50
2022-11-29T19:41:37.576Z,74.60
2022-11-29T19:44:06.987Z,74.70
2022-11-29T19:46:36.246Z,74.50
2022-11-29T19:49:05.726Z,74.70
2022-11-29T19:51:33.574Z,74.60
2022-11-29T19:54:04.887Z,74.70
2022-11-29T19:56:32.577Z,74.70
2022-11-29T19:58:59.875Z,74.80
2022-11-29T20:01:36.062Z,74.90
2022-11-29T20:04:07.359Z,75.00
2022-11-29T20:06:34.850Z,74.80
2022-11-29T20:09:04.017Z,75.10
2022-11-29T20:11:31.240Z,75.10
2022-11-29T20:13:59.966Z,75.00
2022-11-29T20:16:29.461Z,75.10
2022-11-29T20:18:57.795Z,75.10
2022-11-29T20:21:27.547Z,75.10
2022-11-29T20:23:56.173Z,75.00
2022-11-29T20:26:25.331Z,75.10
2022-11-29T20:28:52.761Z,75.00
2022-11-29T20:31:22.776Z,75.00
2022-11-29T20:33:52.835Z,74.90
2022-11-29T20:36:32.837Z,74.80
2022-11-29T20:39:05.813Z,74.70
2022-11-29T20:41:41.503Z,74.70
2022-11-29T20:44:13.699Z,74.80
2022-11-29T20:46:41.273Z,74.90
2022-11-29T20:49:09.703Z,74.60
2022-11-29T20:51:42.025Z,74.60
2022-11-29T20:54:10.602Z,74.50
2022-11-29T20:56:39.142Z,74.40
2022-11-29T20:59:06.397Z,74.50
2022-11-29T21:01:33.589Z,74.60
2022-11-29T21:04:00.908Z,74.50
2022-11-29T21:06:28.115Z,74.60
2022-11-29T21:08:55.292Z,74.40
2022-11-29T21:11:23.967Z,74.50
2022-11-29T21:13:53.015Z,74.70
2022-11-29T21:16:27.306Z,74.40
2022-11-29T21:18:59.112Z,74.50
2022-11-29T21:21:33.222Z,74.40
2022-11-29T21:24:05.197Z,74.70
2022-11-29T21:26:41.762Z,74.60
2022-11-29T21:29:16.172Z,74.70
2022-11-29T21:31:43.949Z,74.70
2022-11-29T21:34:11.365Z,74.50
2022-11-29T21:36:38.816Z,74.60
2022-11-29T21:39:06.888Z,74.50
2022-11-29T21:41:34.192Z,74.60
2022-11-29T21:44:08.850Z,74.40
2022-11-29T21:46:37.596Z,74.60
2022-11-29T21:49:05.315Z,74.60
2022-11-29T21:51:32.525Z,74.50
2022-11-29T21:54:00.757Z,74.50
2022-11-29T21:56:27.942Z,74.40
2022-11-29T21:58:55.179Z,74.20
2022-11-29T22:01:22.511Z,74.10
2022-11-29T22:03:52.317Z,74.20
2022-11-29T22:06:20.397Z,74.00
2022-11-29T22:08:48.374Z,74.10
2022-11-29T22:11:17.269Z,74.20
2022-11-29T22:14:03.456Z,74.10
2022-11-29T22:16:30.763Z,74.30
2022-11-29T22:18:59.315Z,74.20
2022-11-29T22:21:26.539Z,74.20
2022-11-29T22:23:53.746Z,74.20
2022-11-29T22:26:21.838Z,74.40
2022-11-29T22:28:49.141Z,74.40
2022-11-29T22:31:16.509Z,74.30
2022-11-29T22:33:43.714Z,74.30
2022-11-29T22:36:13.170Z,74.30
2022-11-29T22:38:40.619Z,74.20
2022-11-29T22:41:09.861Z,74.20
2022-11-29T22:43:38.822Z,74.20
2022-11-29T22:46:07.696Z,74.30
2022-11-29T22:48:38.905Z,74.20
2022-11-29T22:51:07.913Z,74.60
2022-11-29T22:53:37.568Z,74.10
2022-11-29T22:56:07.031Z,74.10
2022-11-29T22:58:34.504Z,74.20
2022-11-29T23:01:02.850Z,74.40
2022-11-29T23:03:32.786Z,74.20
2022-11-29T23:06:03.877Z,74.40
2022-11-29T23:08:31.629Z,74.40
2022-11-29T23:11:00.673Z,74.20
2022-11-29T23:13:27.895Z,74.20
2022-11-29T23:15:55.085Z,74.40
2022-11-29T23:18:22.300Z,74.30
2022-11-29T23:20:49.505Z,74.30
2022-11-29T23:23:16.708Z,74.30
2022-11-29T23:25:48.566Z,74.30
2022-11-29T23:28:17.319Z,74.40
2022-11-29T23:30:44.691Z,74.40
2022-11-29T23:33:11.910Z,74.30
2022-11-29T23:35:39.183Z,74.50
2022-11-29T23:38:06.988Z,74.30
2022-11-29T23:40:34.506Z,74.40
2022-11-29T23:43:01.694Z,74.20
2022-11-29T23:45:30.257Z,74.40
2022-11-29T23:47:57.572Z,74.30
2022-11-29T23:50:24.777Z,74.40
2022-11-29T23:52:53.822Z,74.30
2022-11-29T23:55:21.709Z,74.40
2022-11-29T23:57:49.296Z,74.60
